Aeroporto :
LOGIN :

Iscrizione | Disclaimer

   EN    FR    IT 

 










Sommario :    VFR   VFR Marginale   IFR   IFR Intensivo   IFR Molto Intensivo
Visibilità : 
Base nubi : 
>= 8 km
>= 3000ft
5 / 8 km
1000 / 3000 ft
1500m / 5 km
500 / 1000 ft
800 / 1500m
200 / 500 ft
< 800m
< 200 ft
Simboli :   Temporali  Nebbia  Neve Forte  Precipitazioni Forti  Vento > 20 kt
SIGMETs :   Varie  Temporali  Ghiacco  Turbolenza  Onda orograficha  Ceneri Vulcaniche






- Altitudine del aeroporto : 37 ft
- Codice IATA : HLY


EGOV - RAF Valley

ULTIMO METAR :
  • 020520Z AUTO 01008KT 9999 -RA OVC026/// 04/03 Q0990

METARs OBSOLETI :
  • 020450Z AUTO 36008KT 9999 -RA OVC045/// 04/03 Q0990
  • 020420Z AUTO 36007KT 9999 // FEW029/// SCT064/// BKN085/// 04/03 Q0990
  • 012050Z AUTO 01005KT 9999 NCD 02/02 Q0989
  • 020350Z AUTO 03004KT 9999 // OVC017/// 04/03 Q0990
  • 020320Z AUTO 02007KT 9999 DZ BKN013/// BKN025/// 03/03 Q0990
  • 020250Z AUTO 01004KT 9999 SCT017/// SCT037/// 03/02 Q0990
  • 020220Z AUTO 35006KT 9999 SCT018/// BKN160/// 02/01 Q0990
  • 020150Z AUTO 36005KT 9999 OVC160/// 01/01 Q0990
  • 020120Z AUTO 01005KT 9999 OVC170/// 00/M00 Q0990
  • 020050Z AUTO 02004KT 9999 BKN180/// 01/00 Q0990

Previsioni scadute.



MetMap, La meteo Aeronautica in un colpo d'occhio ! - Copyright ORBIFLY Dicembre 2007 - Disclaimer

ORBIFLY MET'MAP TEAM :

Programmazione e sviluppo : Alexandra Zaïnal
Concezione : Baudouin d'Aumeries
Supporto tecnico e logistico : Manuel Goepfert
Aiuto : Marc-Olivier Méhu
Aiuto per la traduzione : Arnaldo La Scala




FONTI E CREDITI :

   NOAA